Terminal Aerodrome Forecast
Issued by NWS Paducah, KY

Home | Current Version | Previous Version | Graphics & Text | Print | Product List | Glossary On
Versions: 1 2 3 4 5 6 7 8 9 10 11 12 13 14 15 16
000
FTUS43 KPAH 230600 AAA
TAFPAH
TAF AMD
KPAH 230604Z 2306/2406 00000KT P6SM MIFG SKC
     FM230900 00000KT 3SM BR MIFG SKC
     FM231500 VRB03KT P6SM SCT250
     FM240100 00000KT P6SM SCT250=

USA.gov is the U.S. government's official web portal to all federal, state and local government web resources and services.